Time;durP1;ratioP1;P1;durP2;ratioP2;P2;SDS_P1;SDS_P2;PMS_P1;PMS_P2;Temp;Humidity;BMP_temperature;BMP_pressure;BME280_temperature;BME280_humidity;BME280_pressure;Samples;Min_cycle;Max_cycle;Signal;HPM_P1;HPM_P2
2023/04/09 00:01:33;;;;;;;4.70;4.20;;;;;;;;;;5071659;28;20040;-63
2023/04/09 00:03:58;;;;;;;4.80;4.30;;;;;;;;;;5063948;28;20024;-62
2023/04/09 00:06:24;;;;;;;6.00;4.00;;;;;;;;;;5066708;28;20298;-63
2023/04/09 00:08:50;;;;;;;5.82;3.95;;;;;;;;;;5059172;28;20040;-64
2023/04/09 00:11:15;;;;;;;4.90;4.20;;;;;;;;;;5066065;28;20106;-64
2023/04/09 00:13:40;;;;;;;4.90;4.30;;;;;;;;;;5056786;28;20387;-63
2023/04/09 00:16:06;;;;;;;5.03;4.53;;;;;;;;;;5069328;28;20298;-65
2023/04/09 00:18:31;;;;;;;5.20;4.70;;;;;;;;;;5059863;28;20496;-63
2023/04/09 00:20:56;;;;;;;4.78;4.00;;;;;;;;;;5055228;28;20115;-65
2023/04/09 00:23:21;;;;;;;5.07;4.00;;;;;;;;;;5057649;28;20056;-63
2023/04/09 00:25:47;;;;;;;5.90;4.47;;;;;;;;;;5066606;28;20278;-63
2023/04/09 00:28:12;;;;;;;5.80;4.57;;;;;;;;;;5065572;28;20295;-63
2023/04/09 00:30:37;;;;;;;4.70;4.13;;;;;;;;;;5061970;28;20056;-65
2023/04/09 00:33:02;;;;;;;5.47;4.40;;;;;;;;;;5062147;28;20286;-64
2023/04/09 00:35:28;;;;;;;5.45;4.22;;;;;;;;;;5065351;28;20412;-60
2023/04/09 00:37:53;;;;;;;5.32;4.05;;;;;;;;;;5066667;28;20035;-64
2023/04/09 00:40:18;;;;;;;4.53;3.92;;;;;;;;;;5062981;28;20066;-63
2023/04/09 00:42:44;;;;;;;4.60;4.03;;;;;;;;;;5066858;28;20416;-61
2023/04/09 00:45:09;;;;;;;5.13;4.28;;;;;;;;;;5049362;28;20667;-66
2023/04/09 00:47:35;;;;;;;4.60;4.10;;;;;;;;;;5063932;28;20060;-63
2023/04/09 00:50:00;;;;;;;4.72;4.00;;;;;;;;;;5067497;28;20140;-59
2023/04/09 00:52:25;;;;;;;4.40;3.90;;;;;;;;;;5065876;28;20052;-64
2023/04/09 00:54:51;;;;;;;4.40;4.00;;;;;;;;;;5057950;28;20039;-64
2023/04/09 00:57:16;;;;;;;4.68;4.15;;;;;;;;;;5066066;28;20283;-64
2023/04/09 00:59:45;;;;;;;5.25;4.38;;;;;;;;;;5060153;28;20474;-62
2023/04/09 01:02:11;;;;;;;4.80;4.30;;;;;;;;;;5058502;28;20504;-65
2023/04/09 01:04:36;;;;;;;3.88;3.47;;;;;;;;;;5063585;28;20028;-65
2023/04/09 01:07:11;;;;;;;4.15;3.55;;;;;;;;;;5060640;28;20040;-64
2023/04/09 01:09:38;;;;;;;4.93;3.97;;;;;;;;;;5064377;28;20063;-63
2023/04/09 01:12:21;;;;;;;5.05;4.20;;;;;;;;;;5067050;28;20024;-64
2023/04/09 01:15:04;;;;;;;5.03;4.47;;;;;;;;;;5056000;28;20123;-63
2023/04/09 01:17:32;;;;;;;4.80;4.15;;;;;;;;;;5058069;28;20037;-60
2023/04/09 01:20:00;;;;;;;4.78;3.95;;;;;;;;;;5059106;28;20056;-64
2023/04/09 01:22:44;;;;;;;4.38;3.83;;;;;;;;;;5066197;28;20513;-66
2023/04/09 01:25:25;;;;;;;5.25;4.55;;;;;;;;;;5065846;28;20033;-63
2023/04/09 01:28:10;;;;;;;4.60;4.20;;;;;;;;;;5066101;28;20048;-63
2023/04/09 01:30:35;;;;;;;4.30;3.88;;;;;;;;;;5041384;28;20070;-62
2023/04/09 01:33:01;;;;;;;4.90;3.97;;;;;;;;;;5061347;28;20029;-62
2023/04/09 01:35:26;;;;;;;4.73;4.23;;;;;;;;;;5050604;28;20287;-63
2023/04/09 01:37:52;;;;;;;5.00;4.20;;;;;;;;;;5060107;28;20305;-64
2023/04/09 01:40:17;;;;;;;4.63;4.10;;;;;;;;;;5065742;28;20094;-65
2023/04/09 01:42:42;;;;;;;4.95;4.30;;;;;;;;;;5060256;28;20477;-62
2023/04/09 01:45:07;;;;;;;4.97;4.23;;;;;;;;;;5059033;28;20051;-63
2023/04/09 01:47:33;;;;;;;5.15;4.65;;;;;;;;;;5066855;28;20106;-63
2023/04/09 01:49:58;;;;;;;4.50;4.00;;;;;;;;;;5062495;28;20028;-65
2023/04/09 01:52:23;;;;;;;4.73;4.23;;;;;;;;;;5055016;28;20283;-64
2023/04/09 01:54:48;;;;;;;4.47;4.03;;;;;;;;;;5060033;28;20286;-64
2023/04/09 01:57:14;;;;;;;4.43;4.03;;;;;;;;;;5065365;28;20368;-64
2023/04/09 01:59:39;;;;;;;4.60;4.00;;;;;;;;;;5066141;28;20313;-64
2023/04/09 02:02:09;;;;;;;4.25;3.85;;;;;;;;;;5065144;28;20454;-64
2023/04/09 02:04:34;;;;;;;;;;;;;;;;;;5065357;28;20158;-64
2023/04/09 02:07:23;;;;;;;4.70;4.20;;;;;;;;;;5065621;28;19924;-64
2023/04/09 02:09:48;;;;;;;4.63;4.22;;;;;;;;;;5046533;28;20032;-66
2023/04/09 02:12:15;;;;;;;4.23;3.83;;;;;;;;;;5063361;28;20028;-63
2023/04/09 02:14:40;;;;;;;4.75;4.25;;;;;;;;;;5065105;28;20809;-63
2023/04/09 02:17:05;;;;;;;4.63;4.00;;;;;;;;;;5043601;28;20119;-61
2023/04/09 02:19:38;;;;;;;4.27;3.77;;;;;;;;;;5058875;28;20052;-62
2023/04/09 02:22:03;;;;;;;4.55;3.90;;;;;;;;;;5053798;28;20037;-64
2023/04/09 02:24:29;;;;;;;4.97;4.30;;;;;;;;;;5053420;28;20021;-65
2023/04/09 02:26:54;;;;;;;4.65;4.10;;;;;;;;;;5046558;28;20051;-64
2023/04/09 02:29:19;;;;;;;4.20;3.80;;;;;;;;;;5053052;28;20025;-64
2023/04/09 02:31:45;;;;;;;4.53;4.13;;;;;;;;;;5032919;28;20330;-66
2023/04/09 02:34:10;;;;;;;4.63;4.13;;;;;;;;;;5061701;28;20651;-63
2023/04/09 02:36:35;;;;;;;4.40;4.00;;;;;;;;;;5056521;28;20271;-62
2023/04/09 02:39:00;;;;;;;4.63;3.90;;;;;;;;;;5051607;28;20159;-62
2023/04/09 02:41:26;;;;;;;4.53;4.13;;;;;;;;;;5059376;28;20278;-62
2023/04/09 02:43:51;;;;;;;4.57;4.13;;;;;;;;;;5055349;28;20267;-65
2023/04/09 02:46:16;;;;;;;4.73;4.17;;;;;;;;;;5057961;28;20021;-64
2023/04/09 02:48:41;;;;;;;4.93;4.03;;;;;;;;;;5062319;28;20251;-64
2023/04/09 02:51:07;;;;;;;4.30;3.90;;;;;;;;;;5057816;28;20265;-64
2023/04/09 02:53:32;;;;;;;4.72;3.90;;;;;;;;;;5060072;28;20012;-65
2023/04/09 02:55:57;;;;;;;4.77;4.20;;;;;;;;;;5057966;28;20039;-63
2023/04/09 02:58:22;;;;;;;4.70;4.07;;;;;;;;;;5047043;28;20017;-64
2023/04/09 03:00:48;;;;;;;4.70;4.17;;;;;;;;;;5054896;28;20329;-63
2023/04/09 03:03:13;;;;;;;4.43;4.03;;;;;;;;;;5058313;28;20060;-61
2023/04/09 03:05:38;;;;;;;4.40;3.97;;;;;;;;;;5047591;28;20836;-63
2023/04/09 03:08:03;;;;;;;4.68;4.10;;;;;;;;;;5050086;28;20192;-64
2023/04/09 03:10:29;;;;;;;4.43;4.03;;;;;;;;;;5055032;28;20100;-63
2023/04/09 03:12:54;;;;;;;4.40;4.00;;;;;;;;;;5063929;28;20023;-63
2023/04/09 03:15:19;;;;;;;4.05;3.63;;;;;;;;;;5060786;28;20266;-62
2023/04/09 03:17:44;;;;;;;4.47;3.90;;;;;;;;;;5057215;28;20020;-64
2023/04/09 03:20:10;;;;;;;4.60;4.20;;;;;;;;;;5069680;28;20306;-62
2023/04/09 03:22:38;;;;;;;4.27;3.87;;;;;;;;;;5065400;28;20029;-62
2023/04/09 03:25:03;;;;;;;4.28;3.88;;;;;;;;;;5053426;28;20303;-62
2023/04/09 03:27:29;;;;;;;4.45;4.05;;;;;;;;;;5060475;28;20536;-64
2023/04/09 03:29:54;;;;;;;4.40;4.00;;;;;;;;;;5051208;28;20429;-62
2023/04/09 03:32:19;;;;;;;5.05;4.35;;;;;;;;;;5059383;28;20267;-64
2023/04/09 03:34:45;;;;;;;4.70;4.20;;;;;;;;;;5057970;28;20063;-64
2023/04/09 03:37:10;;;;;;;4.73;3.70;;;;;;;;;;5060372;28;20358;-64
2023/04/09 03:39:35;;;;;;;4.20;3.70;;;;;;;;;;5057440;28;20267;-63
2023/04/09 03:42:00;;;;;;;4.77;4.13;;;;;;;;;;5061291;28;20270;-60
2023/04/09 03:44:26;;;;;;;4.73;3.93;;;;;;;;;;5045173;28;20322;-64
2023/04/09 03:46:51;;;;;;;4.05;3.58;;;;;;;;;;5059058;28;20040;-65
2023/04/09 03:49:16;;;;;;;4.03;3.63;;;;;;;;;;5053088;28;20024;-64
2023/04/09 03:51:43;;;;;;;4.82;4.07;;;;;;;;;;5055454;28;20107;-66
2023/04/09 03:54:08;;;;;;;4.15;3.70;;;;;;;;;;5055157;28;20024;-64
2023/04/09 03:56:33;;;;;;;4.90;4.37;;;;;;;;;;5046119;28;20026;-63
2023/04/09 03:58:58;;;;;;;4.43;4.03;;;;;;;;;;5056678;28;20009;-63
2023/04/09 04:01:24;;;;;;;4.77;4.00;;;;;;;;;;5055538;28;20031;-63
2023/04/09 04:03:49;;;;;;;5.15;4.13;;;;;;;;;;5059337;28;21844;-63
2023/04/09 04:06:14;;;;;;;4.97;3.95;;;;;;;;;;5060793;28;21040;-63
2023/04/09 04:08:40;;;;;;;3.92;3.50;;;;;;;;;;5052938;28;20040;-64
2023/04/09 04:11:05;;;;;;;4.28;3.88;;;;;;;;;;5065887;28;20041;-63
2023/04/09 04:13:30;;;;;;;4.43;4.03;;;;;;;;;;5059832;28;20077;-63
2023/04/09 04:15:55;;;;;;;4.07;3.55;;;;;;;;;;5056903;28;20118;-63
2023/04/09 04:18:21;;;;;;;4.87;4.23;;;;;;;;;;5063258;28;20029;-61
2023/04/09 04:20:46;;;;;;;4.17;3.77;;;;;;;;;;5062764;28;20271;-61
2023/04/09 04:23:11;;;;;;;4.68;4.18;;;;;;;;;;5063181;28;20730;-64
2023/04/09 04:25:39;;;;;;;5.63;3.80;;;;;;;;;;5063337;28;20036;-66
2023/04/09 04:28:04;;;;;;;4.60;3.90;;;;;;;;;;5067389;28;20298;-68
2023/04/09 04:30:30;;;;;;;4.07;3.63;;;;;;;;;;5068069;28;20035;-68
2023/04/09 04:32:55;;;;;;;4.00;3.60;;;;;;;;;;5066121;28;20443;-62
2023/04/09 04:35:20;;;;;;;3.93;3.30;;;;;;;;;;5062070;28;20029;-67
2023/04/09 04:37:48;;;;;;;5.43;4.05;;;;;;;;;;5066905;28;20289;-64
2023/04/09 04:40:13;;;;;;;3.85;3.55;;;;;;;;;;5067507;28;20051;-67
2023/04/09 04:42:38;;;;;;;4.13;3.70;;;;;;;;;;5067307;28;20025;-66
2023/04/09 04:45:04;;;;;;;4.33;3.83;;;;;;;;;;5066494;28;20631;-68
2023/04/09 04:47:29;;;;;;;4.30;3.50;;;;;;;;;;5065675;28;20307;-64
2023/04/09 04:49:54;;;;;;;4.30;3.70;;;;;;;;;;5065965;28;20330;-66
2023/04/09 04:52:20;;;;;;;3.90;3.50;;;;;;;;;;5062285;28;20532;-67
2023/04/09 04:54:45;;;;;;;3.80;3.30;;;;;;;;;;5056282;28;20043;-69
2023/04/09 04:57:10;;;;;;;5.63;3.28;;;;;;;;;;5065714;28;20332;-65
2023/04/09 04:59:36;;;;;;;3.93;3.53;;;;;;;;;;5068077;28;20032;-63
2023/04/09 05:02:01;;;;;;;3.80;3.42;;;;;;;;;;5070253;28;20815;-62
2023/04/09 05:04:26;;;;;;;3.97;3.58;;;;;;;;;;5046365;28;20082;-64
2023/04/09 05:06:51;;;;;;;5.67;3.87;;;;;;;;;;5057375;28;20050;-64
2023/04/09 05:09:17;;;;;;;3.67;3.23;;;;;;;;;;5066459;28;20817;-69
2023/04/09 05:11:42;;;;;;;4.37;3.60;;;;;;;;;;5065826;28;20271;-62
2023/04/09 05:14:07;;;;;;;3.60;3.10;;;;;;;;;;5064860;28;20377;-63
2023/04/09 05:16:32;;;;;;;3.80;3.40;;;;;;;;;;5064256;28;20068;-67
2023/04/09 05:18:58;;;;;;;4.23;3.43;;;;;;;;;;5058561;28;20385;-69
2023/04/09 05:21:23;;;;;;;3.97;3.33;;;;;;;;;;5054096;28;20274;-67
2023/04/09 05:23:48;;;;;;;4.17;3.40;;;;;;;;;;5047451;28;20509;-69
2023/04/09 05:26:14;;;;;;;5.87;3.60;;;;;;;;;;5066857;28;20584;-70
2023/04/09 05:28:40;;;;;;;3.70;3.30;;;;;;;;;;5068936;28;20309;-70
2023/04/09 05:31:11;;;;;;;4.40;3.60;;;;;;;;;;5068130;28;20040;-64
2023/04/09 05:33:37;;;;;;;4.20;3.50;;;;;;;;;;5064278;28;20090;-67
2023/04/09 05:36:02;;;;;;;4.43;3.40;;;;;;;;;;5065107;28;20041;-64
2023/04/09 05:38:27;;;;;;;3.92;3.53;;;;;;;;;;5064704;28;20035;-69
2023/04/09 05:40:53;;;;;;;4.07;3.10;;;;;;;;;;5075441;28;20075;-61
2023/04/09 05:43:18;;;;;;;3.83;3.38;;;;;;;;;;5063957;28;20275;-63
2023/04/09 05:45:43;;;;;;;3.70;3.40;;;;;;;;;;5047403;28;20060;-65
2023/04/09 05:48:08;;;;;;;3.47;3.17;;;;;;;;;;5064062;28;20313;-65
2023/04/09 05:50:33;;;;;;;3.80;3.20;;;;;;;;;;5059660;28;20290;-66
2023/04/09 05:52:59;;;;;;;4.10;3.27;;;;;;;;;;5062564;28;20420;-67
2023/04/09 05:55:24;;;;;;;3.73;3.33;;;;;;;;;;5055164;28;20581;-63
2023/04/09 05:57:51;;;;;;;3.83;3.30;;;;;;;;;;5064625;28;20710;-68
2023/04/09 06:00:17;;;;;;;3.60;3.15;;;;;;;;;;5068491;28;20305;-65
2023/04/09 06:02:42;;;;;;;4.13;3.15;;;;;;;;;;5070249;28;20033;-65
2023/04/09 06:05:08;;;;;;;4.50;3.20;;;;;;;;;;5052281;28;20037;-68
2023/04/09 06:07:33;;;;;;;3.40;3.10;;;;;;;;;;5064774;28;20045;-63
2023/04/09 06:09:58;;;;;;;3.57;3.27;;;;;;;;;;5038259;28;20028;-70
2023/04/09 06:12:24;;;;;;;3.80;3.40;;;;;;;;;;5064239;28;20286;-70
2023/04/09 06:14:49;;;;;;;4.45;3.67;;;;;;;;;;5065381;28;20032;-63
2023/04/09 06:17:15;;;;;;;3.63;3.15;;;;;;;;;;5071542;22;20176;-63
2023/04/09 06:19:40;;;;;;;3.50;3.20;;;;;;;;;;5041006;28;20047;-63
2023/04/09 06:22:05;;;;;;;4.00;3.47;;;;;;;;;;5037816;28;20287;-63
2023/04/09 06:24:31;;;;;;;3.42;3.13;;;;;;;;;;5040244;28;20275;-64
2023/04/09 06:26:56;;;;;;;3.92;3.25;;;;;;;;;;5031684;28;20059;-61
2023/04/09 06:29:22;;;;;;;3.70;3.30;;;;;;;;;;5031341;28;20484;-62
2023/04/09 06:31:47;;;;;;;4.20;3.40;;;;;;;;;;5036574;28;20030;-65
2023/04/09 06:34:12;;;;;;;4.47;4.05;;;;;;;;;;5037317;28;20349;-63
2023/04/09 06:36:39;;;;;;;8.53;3.60;;;;;;;;;;5036836;28;20086;-61
2023/04/09 06:39:04;;;;;;;4.97;3.42;;;;;;;;;;5036095;28;20117;-65
2023/04/09 06:41:29;;;;;;;4.95;4.10;;;;;;;;;;5042180;28;20120;-61
2023/04/09 06:43:55;;;;;;;7.47;3.70;;;;;;;;;;5041725;28;20041;-59
2023/04/09 06:46:20;;;;;;;5.20;3.60;;;;;;;;;;5035991;28;20609;-64
2023/04/09 06:48:45;;;;;;;7.88;3.80;;;;;;;;;;5029765;28;20779;-62
2023/04/09 06:51:11;;;;;;;7.53;3.70;;;;;;;;;;5028265;28;20025;-63
2023/04/09 06:53:39;;;;;;;6.05;3.33;;;;;;;;;;5041687;28;20354;-64
2023/04/09 06:56:05;;;;;;;4.85;3.80;;;;;;;;;;5042346;28;20538;-61
2023/04/09 06:58:30;;;;;;;5.93;3.75;;;;;;;;;;5039617;28;20601;-62
2023/04/09 07:00:55;;;;;;;5.38;3.55;;;;;;;;;;5031493;28;20098;-64
2023/04/09 07:03:20;;;;;;;4.53;3.50;;;;;;;;;;5037850;28;20036;-62
2023/04/09 07:05:46;;;;;;;5.30;3.50;;;;;;;;;;5042530;28;20033;-63
2023/04/09 07:08:11;;;;;;;4.75;3.70;;;;;;;;;;5025656;28;20439;-62
2023/04/09 07:10:36;;;;;;;5.27;3.80;;;;;;;;;;5027894;28;20304;-64
2023/04/09 07:13:02;;;;;;;5.13;3.75;;;;;;;;;;5040909;28;20727;-61
2023/04/09 07:15:27;;;;;;;4.72;3.63;;;;;;;;;;5037914;28;20038;-61
2023/04/09 07:17:52;;;;;;;4.60;3.67;;;;;;;;;;5035623;28;20052;-62
2023/04/09 07:20:17;;;;;;;5.20;4.05;;;;;;;;;;5041718;28;20279;-62
2023/04/09 07:22:43;;;;;;;6.07;3.67;;;;;;;;;;5034532;28;20033;-60
2023/04/09 07:25:08;;;;;;;4.37;3.63;;;;;;;;;;5040572;28;20370;-61
2023/04/09 07:27:33;;;;;;;5.05;3.88;;;;;;;;;;5039479;28;20846;-62
2023/04/09 07:29:59;;;;;;;5.22;3.95;;;;;;;;;;5029914;28;20034;-60
2023/04/09 07:32:25;;;;;;;4.88;3.90;;;;;;;;;;5042742;28;20037;-64
2023/04/09 07:34:51;;;;;;;4.80;3.40;;;;;;;;;;5029884;28;20167;-62
2023/04/09 07:37:16;;;;;;;4.80;3.80;;;;;;;;;;5040364;28;20500;-62
2023/04/09 07:39:41;;;;;;;4.33;3.40;;;;;;;;;;5037238;28;20037;-61
2023/04/09 07:42:07;;;;;;;4.88;3.70;;;;;;;;;;5031849;28;20033;-62
2023/04/09 07:44:32;;;;;;;4.97;4.03;;;;;;;;;;5045694;28;20044;-61
2023/04/09 07:46:58;;;;;;;4.20;3.33;;;;;;;;;;5035520;28;21030;-62
2023/04/09 07:49:23;;;;;;;4.50;3.88;;;;;;;;;;5031587;28;20474;-61
2023/04/09 07:51:48;;;;;;;5.57;3.70;;;;;;;;;;5026751;28;20376;-63
2023/04/09 07:54:13;;;;;;;4.57;3.60;;;;;;;;;;5039017;28;20810;-62
2023/04/09 07:56:39;;;;;;;5.33;3.90;;;;;;;;;;5026835;28;20435;-62
2023/04/09 07:59:04;;;;;;;4.30;3.53;;;;;;;;;;5026575;28;20378;-61
2023/04/09 08:01:30;;;;;;;5.43;3.85;;;;;;;;;;5035276;28;20049;-61
2023/04/09 08:03:55;;;;;;;5.85;3.85;;;;;;;;;;5036978;28;20148;-61
2023/04/09 08:06:21;;;;;;;5.07;3.63;;;;;;;;;;5027897;28;20078;-61
2023/04/09 08:08:46;;;;;;;5.13;3.90;;;;;;;;;;5035055;28;20029;-61
2023/04/09 08:11:11;;;;;;;5.17;3.90;;;;;;;;;;5039664;28;20288;-61
2023/04/09 08:13:36;;;;;;;5.27;4.07;;;;;;;;;;5046534;28;20288;-61
2023/04/09 08:16:02;;;;;;;4.55;4.00;;;;;;;;;;5031637;28;20649;-60
2023/04/09 08:18:28;;;;;;;5.60;4.18;;;;;;;;;;5032788;28;20513;-61
2023/04/09 08:20:53;;;;;;;4.95;4.13;;;;;;;;;;5037888;28;20084;-63
2023/04/09 08:23:19;;;;;;;5.30;4.13;;;;;;;;;;5038038;28;20033;-61
2023/04/09 08:25:44;;;;;;;6.55;4.32;;;;;;;;;;5019243;28;20041;-64
2023/04/09 08:28:09;;;;;;;5.35;4.45;;;;;;;;;;5026536;28;20046;-60
2023/04/09 08:30:35;;;;;;;6.33;4.90;;;;;;;;;;5035872;28;20033;-62
2023/04/09 08:33:00;;;;;;;5.75;4.18;;;;;;;;;;5037692;28;20384;-61
2023/04/09 08:35:27;;;;;;;5.57;4.30;;;;;;;;;;5029605;28;20427;-63
2023/04/09 08:37:52;;;;;;;5.45;4.43;;;;;;;;;;5032473;28;20034;-64
2023/04/09 08:40:18;;;;;;;6.00;4.50;;;;;;;;;;5041701;28;20028;-62
2023/04/09 08:42:44;;;;;;;7.72;4.97;;;;;;;;;;5036674;28;20041;-62
2023/04/09 08:45:10;;;;;;;6.90;4.63;;;;;;;;;;5040872;28;20574;-61
2023/04/09 08:47:35;;;;;;;5.72;4.57;;;;;;;;;;5025379;28;20053;-62
2023/04/09 08:50:01;;;;;;;8.45;4.55;;;;;;;;;;5030344;28;20057;-62
2023/04/09 08:52:30;;;;;;;6.38;4.53;;;;;;;;;;5036741;28;20456;-61
2023/04/09 08:54:55;;;;;;;6.10;4.60;;;;;;;;;;5052869;28;20132;-62
2023/04/09 08:57:20;;;;;;;5.97;4.37;;;;;;;;;;5037322;28;20718;-63
2023/04/09 08:59:46;;;;;;;6.10;4.97;;;;;;;;;;5037561;28;20328;-62
2023/04/09 09:02:12;;;;;;;5.32;4.47;;;;;;;;;;5032837;28;20281;-62
2023/04/09 09:04:44;;;;;;;5.05;4.00;;;;;;;;;;5029933;28;20021;-61
2023/04/09 09:07:09;;;;;;;5.68;4.63;;;;;;;;;;5032787;28;20621;-62
2023/04/09 09:09:35;;;;;;;5.40;4.45;;;;;;;;;;5030586;28;20273;-61
2023/04/09 09:12:01;;;;;;;5.47;4.85;;;;;;;;;;5034758;28;20033;-61
2023/04/09 09:14:26;;;;;;;6.45;4.50;;;;;;;;;;5028918;28;20579;-63
2023/04/09 09:16:54;;;;;;;5.20;4.70;;;;;;;;;;5030519;28;20375;-63
2023/04/09 09:19:20;;;;;;;5.63;4.60;;;;;;;;;;5036118;28;20307;-61
2023/04/09 09:21:54;;;;;;;5.95;4.60;;;;;;;;;;5036004;28;20104;-62
2023/04/09 09:24:19;;;;;;;5.53;4.57;;;;;;;;;;5037075;28;20408;-63
2023/04/09 09:26:45;;;;;;;6.30;4.75;;;;;;;;;;5041181;28;20077;-62
2023/04/09 09:29:10;;;;;;;5.95;4.70;;;;;;;;;;5034172;28;20052;-61
2023/04/09 09:31:44;;;;;;;18.70;5.90;;;;;;;;;;5025289;28;20049;-60
2023/04/09 09:34:10;;;;;;;11.00;5.53;;;;;;;;;;5028431;28;20288;-63
2023/04/09 09:36:35;;;;;;;8.27;4.90;;;;;;;;;;5032482;28;20635;-60
2023/04/09 09:39:08;;;;;;;11.20;6.10;;;;;;;;;;5028095;28;20038;-61
2023/04/09 09:41:34;;;;;;;9.38;6.18;;;;;;;;;;5027971;28;20029;-61
2023/04/09 09:43:59;;;;;;;11.90;5.85;;;;;;;;;;5033881;28;20491;-61
2023/04/09 09:46:25;;;;;;;8.97;6.07;;;;;;;;;;5013987;28;20516;-61
2023/04/09 09:48:50;;;;;;;9.43;6.03;;;;;;;;;;5039680;28;20279;-60
2023/04/09 09:51:15;;;;;;;8.95;5.95;;;;;;;;;;5027379;28;20053;-61
2023/04/09 09:53:42;;;;;;;7.60;6.10;;;;;;;;;;5025475;28;20430;-60
2023/04/09 09:56:12;;;;;;;9.52;5.85;;;;;;;;;;5030544;28;20288;-61
2023/04/09 09:58:39;;;;;;;7.95;5.88;;;;;;;;;;5040621;28;20049;-61
2023/04/09 10:01:09;;;;;;;9.63;6.60;;;;;;;;;;5037149;28;20032;-61
2023/04/09 10:03:36;;;;;;;;;;;;;;;;;;5028666;28;20044;-61
2023/04/09 10:06:01;;;;;;;9.50;5.43;;;;;;;;;;5027334;28;19924;-62
2023/04/09 10:08:27;;;;;;;8.75;6.75;;;;;;;;;;5025401;28;20034;-61
2023/04/09 10:10:52;;;;;;;8.97;6.63;;;;;;;;;;5024407;28;20021;-62
2023/04/09 10:13:50;;;;;;;10.13;6.33;;;;;;;;;;5035188;28;20263;-61
2023/04/09 10:16:15;;;;;;;8.55;6.40;;;;;;;;;;4995419;28;20282;-62
2023/04/09 10:18:41;;;;;;;7.70;6.05;;;;;;;;;;5037582;28;20049;-63
2023/04/09 10:21:12;;;;;;;9.00;6.05;;;;;;;;;;5039913;28;20047;-61
2023/04/09 10:23:41;;;;;;;7.53;5.88;;;;;;;;;;5043103;28;20032;-62
2023/04/09 10:26:06;;;;;;;7.28;5.78;;;;;;;;;;5044230;28;20540;-61
2023/04/09 10:28:32;;;;;;;7.55;5.93;;;;;;;;;;5043841;28;20044;-61
2023/04/09 10:30:57;;;;;;;8.63;6.10;;;;;;;;;;5044190;28;20580;-61
2023/04/09 10:33:26;;;;;;;8.73;6.10;;;;;;;;;;5027666;28;20037;-61
2023/04/09 10:35:57;;;;;;;6.78;6.07;;;;;;;;;;5032783;28;20017;-61
2023/04/09 10:38:52;;;;;;;8.10;6.18;;;;;;;;;;5019039;28;20365;-61
2023/04/09 10:41:26;;;;;;;8.45;6.32;;;;;;;;;;5022372;28;20068;-61
2023/04/09 10:43:52;;;;;;;6.63;5.93;;;;;;;;;;5029234;28;20041;-62
2023/04/09 10:46:26;;;;;;;9.03;6.00;;;;;;;;;;5039153;28;20029;-60
2023/04/09 10:49:06;;;;;;;7.25;6.20;;;;;;;;;;5043820;28;20379;-61
2023/04/09 10:51:37;;;;;;;7.03;5.93;;;;;;;;;;5043151;28;20029;-61
2023/04/09 10:54:02;;;;;;;7.32;6.13;;;;;;;;;;5042326;28;20064;-60
2023/04/09 10:56:28;;;;;;;9.20;6.95;;;;;;;;;;5030746;28;20091;-61
2023/04/09 10:58:53;;;;;;;6.63;5.87;;;;;;;;;;5042991;28;20512;-61
2023/04/09 11:01:21;;;;;;;7.07;5.90;;;;;;;;;;5026670;28;20503;-61
2023/04/09 11:03:47;;;;;;;6.82;5.90;;;;;;;;;;5037639;28;20033;-61
2023/04/09 11:06:12;;;;;;;7.10;6.07;;;;;;;;;;5038108;28;20044;-60
2023/04/09 11:08:37;;;;;;;7.57;5.85;;;;;;;;;;5027373;28;20042;-61
2023/04/09 11:11:03;;;;;;;7.25;5.85;;;;;;;;;;5028510;28;20034;-61
2023/04/09 11:13:28;;;;;;;7.97;6.85;;;;;;;;;;5034863;28;20073;-61
2023/04/09 11:15:54;;;;;;;7.18;6.13;;;;;;;;;;5040458;28;20123;-61
2023/04/09 11:18:20;;;;;;;8.40;6.50;;;;;;;;;;5037276;28;20139;-62
2023/04/09 11:20:46;;;;;;;7.00;6.28;;;;;;;;;;5035698;28;20434;-61
2023/04/09 11:23:11;;;;;;;6.70;5.83;;;;;;;;;;5037209;28;20124;-60
2023/04/09 11:25:37;;;;;;;7.55;6.53;;;;;;;;;;5046785;28;20605;-62
2023/04/09 11:28:02;;;;;;;6.90;6.00;;;;;;;;;;5036951;28;20041;-60
2023/04/09 11:30:28;;;;;;;7.85;6.18;;;;;;;;;;5028577;28;20026;-61
2023/04/09 11:32:53;;;;;;;7.93;6.03;;;;;;;;;;5039120;28;20041;-61
2023/04/09 11:35:19;;;;;;;8.18;6.20;;;;;;;;;;5040248;28;20041;-61
2023/04/09 11:37:44;;;;;;;6.75;6.05;;;;;;;;;;5033834;28;20036;-61
2023/04/09 11:40:19;;;;;;;8.35;5.72;;;;;;;;;;5028737;28;20045;-62
2023/04/09 11:42:45;;;;;;;6.60;5.50;;;;;;;;;;5041453;28;20547;-61
2023/04/09 11:45:11;;;;;;;6.90;5.93;;;;;;;;;;5020780;28;20033;-61
2023/04/09 11:47:36;;;;;;;7.30;6.38;;;;;;;;;;5036685;28;20040;-62
2023/04/09 11:50:02;;;;;;;7.32;5.97;;;;;;;;;;5034391;28;20477;-60
2023/04/09 11:52:29;;;;;;;7.50;5.95;;;;;;;;;;5027129;28;20108;-60
2023/04/09 11:54:58;;;;;;;7.22;6.25;;;;;;;;;;5030157;28;20057;-61
2023/04/09 11:57:23;;;;;;;7.15;5.90;;;;;;;;;;5037515;28;20049;-61
2023/04/09 11:59:49;;;;;;;7.27;5.93;;;;;;;;;;5041526;28;20025;-60
2023/04/09 12:02:16;;;;;;;6.53;5.80;;;;;;;;;;5029401;28;20391;-61
2023/04/09 12:04:48;;;;;;;7.65;5.65;;;;;;;;;;5036315;28;20390;-61
2023/04/09 12:07:13;;;;;;;7.32;5.60;;;;;;;;;;5033476;28;20045;-62
2023/04/09 12:09:47;;;;;;;7.83;5.87;;;;;;;;;;5040110;28;20043;-60
2023/04/09 12:12:17;;;;;;;7.78;5.18;;;;;;;;;;5027285;28;20276;-61
2023/04/09 12:14:44;;;;;;;6.15;5.30;;;;;;;;;;5030263;28;20029;-61
2023/04/09 12:17:09;;;;;;;6.65;5.25;;;;;;;;;;5020258;28;20057;-60
2023/04/09 12:19:35;;;;;;;7.28;5.68;;;;;;;;;;5044173;28;20505;-61
2023/04/09 12:22:00;;;;;;;6.93;5.85;;;;;;;;;;5035803;28;20060;-60
2023/04/09 12:24:26;;;;;;;6.57;5.40;;;;;;;;;;5028541;28;20052;-59
2023/04/09 12:26:52;;;;;;;7.85;5.45;;;;;;;;;;5037299;28;20318;-62
2023/04/09 12:29:18;;;;;;;7.72;5.82;;;;;;;;;;5030821;28;20037;-62
2023/04/09 12:31:43;;;;;;;6.60;5.57;;;;;;;;;;5021759;28;20063;-59
2023/04/09 12:34:09;;;;;;;6.72;5.32;;;;;;;;;;5034425;28;20041;-60
2023/04/09 12:36:34;;;;;;;7.90;6.28;;;;;;;;;;5044667;28;20044;-60
2023/04/09 12:39:00;;;;;;;7.50;6.03;;;;;;;;;;5038341;28;20032;-60
2023/04/09 12:41:25;;;;;;;7.15;5.88;;;;;;;;;;5040186;28;20079;-61
2023/04/09 12:43:51;;;;;;;6.07;5.20;;;;;;;;;;5040665;28;20122;-60
2023/04/09 12:46:17;;;;;;;6.70;5.60;;;;;;;;;;5034676;28;20060;-61
2023/04/09 12:48:43;;;;;;;5.90;4.82;;;;;;;;;;5010259;28;20144;-61
2023/04/09 12:51:10;;;;;;;6.40;5.20;;;;;;;;;;5034305;28;20489;-61
2023/04/09 12:53:36;;;;;;;6.43;5.13;;;;;;;;;;5034150;22;20025;-57
2023/04/09 12:56:01;;;;;;;8.50;5.95;;;;;;;;;;5068327;28;20050;-65
2023/04/09 12:58:27;;;;;;;7.75;5.47;;;;;;;;;;5060021;28;20045;-64
2023/04/09 13:00:53;;;;;;;7.70;5.10;;;;;;;;;;5056989;28;20497;-64
2023/04/09 13:03:20;;;;;;;5.82;4.90;;;;;;;;;;5055727;28;20124;-60
2023/04/09 13:05:46;;;;;;;7.18;4.75;;;;;;;;;;5059276;28;20063;-61
2023/04/09 13:08:12;;;;;;;5.55;4.82;;;;;;;;;;5048682;28;20053;-63
2023/04/09 13:10:38;;;;;;;5.28;4.40;;;;;;;;;;5059507;28;20075;-62
2023/04/09 13:13:04;;;;;;;6.95;4.68;;;;;;;;;;5064976;28;20072;-63
2023/04/09 13:15:30;;;;;;;5.47;4.45;;;;;;;;;;5057413;28;20051;-63
2023/04/09 13:17:55;;;;;;;8.27;5.03;;;;;;;;;;5054474;28;20122;-63
2023/04/09 13:20:21;;;;;;;7.82;5.05;;;;;;;;;;5064030;28;20028;-61
2023/04/09 13:22:51;;;;;;;6.50;4.73;;;;;;;;;;5056617;28;20449;-62
2023/04/09 13:25:17;;;;;;;5.70;4.75;;;;;;;;;;5054180;28;20653;-62
2023/04/09 13:27:43;;;;;;;6.78;4.78;;;;;;;;;;5057530;28;20056;-61
2023/04/09 13:30:09;;;;;;;5.63;4.63;;;;;;;;;;5058604;28;20037;-63
2023/04/09 13:32:35;;;;;;;6.50;4.78;;;;;;;;;;5042749;28;20918;-62
2023/04/09 13:35:00;;;;;;;5.85;4.93;;;;;;;;;;5056015;28;20028;-64
2023/04/09 13:37:26;;;;;;;5.35;4.53;;;;;;;;;;5057111;28;20372;-62
2023/04/09 13:39:51;;;;;;;5.47;4.15;;;;;;;;;;5061123;28;20555;-63
2023/04/09 13:42:16;;;;;;;5.25;4.60;;;;;;;;;;5065502;28;20048;-62
2023/04/09 13:44:43;;;;;;;6.93;4.45;;;;;;;;;;5061211;28;20033;-62
2023/04/09 13:47:12;;;;;;;5.82;4.53;;;;;;;;;;5057134;28;20055;-64
2023/04/09 13:49:38;;;;;;;6.25;4.47;;;;;;;;;;5061749;28;20040;-62
2023/04/09 13:52:03;;;;;;;6.70;4.95;;;;;;;;;;5058128;28;20078;-63
2023/04/09 13:54:29;;;;;;;6.82;5.18;;;;;;;;;;5058121;28;20097;-63
2023/04/09 13:56:54;;;;;;;5.65;4.72;;;;;;;;;;5065209;28;20043;-63
2023/04/09 13:59:19;;;;;;;5.73;4.87;;;;;;;;;;5057955;28;20037;-62
2023/04/09 14:01:44;;;;;;;7.43;5.50;;;;;;;;;;5064262;28;20839;-59
2023/04/09 14:04:10;;;;;;;6.75;4.65;;;;;;;;;;5060806;28;20680;-62
2023/04/09 14:06:35;;;;;;;5.85;4.65;;;;;;;;;;5064238;28;20089;-62
2023/04/09 14:09:00;;;;;;;5.65;4.72;;;;;;;;;;5062979;28;20049;-62
2023/04/09 14:11:26;;;;;;;5.50;4.53;;;;;;;;;;5058775;28;20040;-63
2023/04/09 14:13:51;;;;;;;6.30;4.63;;;;;;;;;;5057588;28;20528;-63
2023/04/09 14:16:16;;;;;;;5.78;4.13;;;;;;;;;;5059821;28;20395;-62
2023/04/09 14:18:41;;;;;;;5.65;4.57;;;;;;;;;;5059027;28;20106;-62
2023/04/09 14:21:07;;;;;;;5.57;4.57;;;;;;;;;;5064719;28;20535;-63
2023/04/09 14:23:32;;;;;;;6.65;4.90;;;;;;;;;;5057017;28;20298;-62
2023/04/09 14:25:57;;;;;;;5.40;4.53;;;;;;;;;;5062756;28;20132;-59
2023/04/09 14:28:23;;;;;;;6.10;4.20;;;;;;;;;;5058184;28;20063;-62
2023/04/09 14:30:48;;;;;;;7.07;4.53;;;;;;;;;;5059330;28;20283;-63
2023/04/09 14:33:13;;;;;;;6.00;4.03;;;;;;;;;;5062598;28;20294;-61
2023/04/09 14:35:38;;;;;;;6.10;4.60;;;;;;;;;;5064398;28;20290;-61
2023/04/09 14:38:04;;;;;;;6.27;4.47;;;;;;;;;;5063795;28;20364;-62